sensor_id;sensor_type;location;lat;lon;timestamp;P1;durP1;ratioP1;P2;durP2;ratioP2
48925;SDS011;39838;59.938;30.642;2024-03-25T00:02:15;29.50;;;8.48;;
48925;SDS011;39838;59.938;30.642;2024-03-25T00:04:42;19.70;;;8.65;;
48925;SDS011;39838;59.938;30.642;2024-03-25T00:07:08;17.88;;;7.65;;
48925;SDS011;39838;59.938;30.642;2024-03-25T00:09:35;27.55;;;9.40;;
48925;SDS011;39838;59.938;30.642;2024-03-25T00:12:01;21.77;;;8.55;;
48925;SDS011;39838;59.938;30.642;2024-03-25T00:14:30;23.10;;;8.63;;
48925;SDS011;39838;59.938;30.642;2024-03-25T00:16:57;23.25;;;9.57;;
48925;SDS011;39838;59.938;30.642;2024-03-25T00:19:24;27.95;;;8.88;;
48925;SDS011;39838;59.938;30.642;2024-03-25T00:21:50;21.15;;;8.40;;
48925;SDS011;39838;59.938;30.642;2024-03-25T00:24:18;23.92;;;9.13;;
48925;SDS011;39838;59.938;30.642;2024-03-25T00:26:44;20.58;;;8.40;;
48925;SDS011;39838;59.938;30.642;2024-03-25T00:29:11;21.10;;;9.20;;
48925;SDS011;39838;59.938;30.642;2024-03-25T00:31:37;19.38;;;8.70;;
48925;SDS011;39838;59.938;30.642;2024-03-25T00:34:06;21.80;;;8.90;;
48925;SDS011;39838;59.938;30.642;2024-03-25T00:36:32;18.48;;;8.27;;
48925;SDS011;39838;59.938;30.642;2024-03-25T00:39:00;17.08;;;8.18;;
48925;SDS011;39838;59.938;30.642;2024-03-25T00:41:26;18.23;;;8.20;;
48925;SDS011;39838;59.938;30.642;2024-03-25T00:43:53;16.80;;;7.63;;
48925;SDS011;39838;59.938;30.642;2024-03-25T00:46:20;14.60;;;7.40;;
48925;SDS011;39838;59.938;30.642;2024-03-25T00:48:47;17.45;;;8.25;;
48925;SDS011;39838;59.938;30.642;2024-03-25T00:51:14;14.48;;;7.03;;
48925;SDS011;39838;59.938;30.642;2024-03-25T00:53:41;11.23;;;6.40;;
48925;SDS011;39838;59.938;30.642;2024-03-25T00:56:08;13.05;;;6.45;;
48925;SDS011;39838;59.938;30.642;2024-03-25T00:58:36;10.45;;;6.32;;
48925;SDS011;39838;59.938;30.642;2024-03-25T01:01:02;10.98;;;6.60;;
48925;SDS011;39838;59.938;30.642;2024-03-25T01:03:29;13.88;;;7.45;;
48925;SDS011;39838;59.938;30.642;2024-03-25T01:05:55;12.85;;;7.65;;
48925;SDS011;39838;59.938;30.642;2024-03-25T01:08:24;14.43;;;7.20;;
48925;SDS011;39838;59.938;30.642;2024-03-25T01:10:50;12.77;;;7.10;;
48925;SDS011;39838;59.938;30.642;2024-03-25T01:13:17;14.10;;;7.57;;
48925;SDS011;39838;59.938;30.642;2024-03-25T01:15:43;13.88;;;7.43;;
48925;SDS011;39838;59.938;30.642;2024-03-25T01:18:10;12.40;;;7.57;;
48925;SDS011;39838;59.938;30.642;2024-03-25T01:20:36;11.90;;;7.28;;
48925;SDS011;39838;59.938;30.642;2024-03-25T01:23:04;12.70;;;7.40;;
48925;SDS011;39838;59.938;30.642;2024-03-25T01:25:31;12.80;;;7.38;;
48925;SDS011;39838;59.938;30.642;2024-03-25T01:27:58;10.77;;;7.32;;
48925;SDS011;39838;59.938;30.642;2024-03-25T01:30:25;11.38;;;7.55;;
48925;SDS011;39838;59.938;30.642;2024-03-25T01:32:53;11.50;;;7.25;;
48925;SDS011;39838;59.938;30.642;2024-03-25T01:35:19;13.63;;;7.70;;
48925;SDS011;39838;59.938;30.642;2024-03-25T01:37:46;13.07;;;7.22;;
48925;SDS011;39838;59.938;30.642;2024-03-25T01:40:12;13.35;;;7.85;;
48925;SDS011;39838;59.938;30.642;2024-03-25T01:42:41;14.02;;;8.25;;
48925;SDS011;39838;59.938;30.642;2024-03-25T01:45:08;13.80;;;8.88;;
48925;SDS011;39838;59.938;30.642;2024-03-25T01:47:35;15.57;;;8.65;;
48925;SDS011;39838;59.938;30.642;2024-03-25T01:50:04;16.90;;;8.70;;
48925;SDS011;39838;59.938;30.642;2024-03-25T01:52:32;15.45;;;8.32;;
48925;SDS011;39838;59.938;30.642;2024-03-25T01:54:58;12.80;;;7.03;;
48925;SDS011;39838;59.938;30.642;2024-03-25T01:57:29;18.48;;;8.20;;
48925;SDS011;39838;59.938;30.642;2024-03-25T01:59:56;17.98;;;8.40;;
48925;SDS011;39838;59.938;30.642;2024-03-25T02:02:24;16.80;;;8.45;;
48925;SDS011;39838;59.938;30.642;2024-03-25T02:04:50;17.50;;;8.38;;
48925;SDS011;39838;59.938;30.642;2024-03-25T02:07:18;16.42;;;8.00;;
48925;SDS011;39838;59.938;30.642;2024-03-25T02:09:46;18.00;;;7.50;;
48925;SDS011;39838;59.938;30.642;2024-03-25T02:12:14;17.15;;;7.63;;
48925;SDS011;39838;59.938;30.642;2024-03-25T02:14:41;18.48;;;8.30;;
48925;SDS011;39838;59.938;30.642;2024-03-25T02:17:10;16.90;;;8.27;;
48925;SDS011;39838;59.938;30.642;2024-03-25T02:19:36;14.27;;;7.50;;
48925;SDS011;39838;59.938;30.642;2024-03-25T02:22:05;16.08;;;8.15;;
48925;SDS011;39838;59.938;30.642;2024-03-25T02:24:32;16.45;;;7.70;;
48925;SDS011;39838;59.938;30.642;2024-03-25T02:27:02;14.52;;;7.90;;
48925;SDS011;39838;59.938;30.642;2024-03-25T02:29:32;16.45;;;7.15;;
48925;SDS011;39838;59.938;30.642;2024-03-25T02:32:00;12.75;;;6.85;;
48925;SDS011;39838;59.938;30.642;2024-03-25T02:34:26;15.10;;;7.38;;
48925;SDS011;39838;59.938;30.642;2024-03-25T02:36:54;12.63;;;6.88;;
48925;SDS011;39838;59.938;30.642;2024-03-25T02:39:21;12.38;;;7.13;;
48925;SDS011;39838;59.938;30.642;2024-03-25T02:41:49;12.13;;;7.25;;
48925;SDS011;39838;59.938;30.642;2024-03-25T02:44:17;12.57;;;7.60;;
48925;SDS011;39838;59.938;30.642;2024-03-25T02:46:45;13.13;;;7.93;;
48925;SDS011;39838;59.938;30.642;2024-03-25T02:49:11;13.02;;;7.97;;
48925;SDS011;39838;59.938;30.642;2024-03-25T02:51:38;12.75;;;7.80;;
48925;SDS011;39838;59.938;30.642;2024-03-25T02:54:05;15.68;;;9.18;;
48925;SDS011;39838;59.938;30.642;2024-03-25T02:56:33;16.48;;;8.85;;
48925;SDS011;39838;59.938;30.642;2024-03-25T02:59:00;17.35;;;10.15;;
48925;SDS011;39838;59.938;30.642;2024-03-25T03:01:28;18.17;;;8.98;;
48925;SDS011;39838;59.938;30.642;2024-03-25T03:03:55;18.80;;;8.57;;
48925;SDS011;39838;59.938;30.642;2024-03-25T03:06:22;13.13;;;8.40;;
48925;SDS011;39838;59.938;30.642;2024-03-25T03:08:48;14.50;;;7.80;;
48925;SDS011;39838;59.938;30.642;2024-03-25T03:11:15;14.60;;;8.68;;
48925;SDS011;39838;59.938;30.642;2024-03-25T03:13:41;13.07;;;7.63;;
48925;SDS011;39838;59.938;30.642;2024-03-25T03:16:08;14.38;;;8.02;;
48925;SDS011;39838;59.938;30.642;2024-03-25T03:18:36;12.88;;;7.30;;
48925;SDS011;39838;59.938;30.642;2024-03-25T03:21:04;13.88;;;7.70;;
48925;SDS011;39838;59.938;30.642;2024-03-25T03:23:30;12.65;;;7.95;;
48925;SDS011;39838;59.938;30.642;2024-03-25T03:25:57;13.63;;;7.78;;
48925;SDS011;39838;59.938;30.642;2024-03-25T03:28:25;11.70;;;7.45;;
48925;SDS011;39838;59.938;30.642;2024-03-25T03:30:53;11.60;;;7.30;;
48925;SDS011;39838;59.938;30.642;2024-03-25T03:33:19;11.98;;;7.40;;
48925;SDS011;39838;59.938;30.642;2024-03-25T03:35:48;11.40;;;7.50;;
48925;SDS011;39838;59.938;30.642;2024-03-25T03:38:15;12.75;;;7.45;;
48925;SDS011;39838;59.938;30.642;2024-03-25T03:40:42;11.95;;;6.53;;
48925;SDS011;39838;59.938;30.642;2024-03-25T03:43:08;12.93;;;7.65;;
48925;SDS011;39838;59.938;30.642;2024-03-25T03:45:35;13.32;;;8.00;;
48925;SDS011;39838;59.938;30.642;2024-03-25T03:48:02;14.48;;;8.20;;
48925;SDS011;39838;59.938;30.642;2024-03-25T03:50:29;15.35;;;8.60;;
48925;SDS011;39838;59.938;30.642;2024-03-25T03:52:56;14.60;;;8.55;;
48925;SDS011;39838;59.938;30.642;2024-03-25T03:55:24;14.40;;;8.57;;
48925;SDS011;39838;59.938;30.642;2024-03-25T03:57:50;17.40;;;9.23;;
48925;SDS011;39838;59.938;30.642;2024-03-25T04:00:17;18.20;;;9.15;;
48925;SDS011;39838;59.938;30.642;2024-03-25T04:02:43;17.10;;;8.50;;
48925;SDS011;39838;59.938;30.642;2024-03-25T04:05:10;18.88;;;9.07;;
48925;SDS011;39838;59.938;30.642;2024-03-25T04:07:36;18.15;;;9.50;;
48925;SDS011;39838;59.938;30.642;2024-03-25T04:10:06;19.30;;;9.18;;
48925;SDS011;39838;59.938;30.642;2024-03-25T04:12:32;20.67;;;10.23;;
48925;SDS011;39838;59.938;30.642;2024-03-25T04:15:00;18.77;;;9.80;;
48925;SDS011;39838;59.938;30.642;2024-03-25T04:17:27;17.08;;;9.35;;
48925;SDS011;39838;59.938;30.642;2024-03-25T04:19:54;18.83;;;10.02;;
48925;SDS011;39838;59.938;30.642;2024-03-25T04:22:25;17.70;;;9.85;;
48925;SDS011;39838;59.938;30.642;2024-03-25T04:24:52;20.08;;;10.55;;
48925;SDS011;39838;59.938;30.642;2024-03-25T04:27:20;23.10;;;9.75;;
48925;SDS011;39838;59.938;30.642;2024-03-25T04:29:50;15.43;;;9.23;;
48925;SDS011;39838;59.938;30.642;2024-03-25T04:32:16;17.23;;;9.48;;
48925;SDS011;39838;59.938;30.642;2024-03-25T04:34:43;15.13;;;9.57;;
48925;SDS011;39838;59.938;30.642;2024-03-25T04:37:09;15.93;;;9.13;;
48925;SDS011;39838;59.938;30.642;2024-03-25T04:39:36;18.35;;;9.02;;
48925;SDS011;39838;59.938;30.642;2024-03-25T04:42:02;17.95;;;9.20;;
48925;SDS011;39838;59.938;30.642;2024-03-25T04:44:29;19.05;;;9.65;;
48925;SDS011;39838;59.938;30.642;2024-03-25T04:46:56;18.17;;;9.25;;
48925;SDS011;39838;59.938;30.642;2024-03-25T04:49:22;21.75;;;10.43;;
48925;SDS011;39838;59.938;30.642;2024-03-25T04:51:48;18.60;;;9.95;;
48925;SDS011;39838;59.938;30.642;2024-03-25T04:54:14;16.55;;;9.75;;
48925;SDS011;39838;59.938;30.642;2024-03-25T04:56:40;15.35;;;9.10;;
48925;SDS011;39838;59.938;30.642;2024-03-25T04:59:07;17.13;;;9.07;;
48925;SDS011;39838;59.938;30.642;2024-03-25T05:01:34;15.35;;;9.20;;
48925;SDS011;39838;59.938;30.642;2024-03-25T05:04:00;15.25;;;8.32;;
48925;SDS011;39838;59.938;30.642;2024-03-25T05:06:26;13.43;;;7.95;;
48925;SDS011;39838;59.938;30.642;2024-03-25T05:08:52;14.27;;;8.35;;
48925;SDS011;39838;59.938;30.642;2024-03-25T05:11:18;15.65;;;8.90;;
48925;SDS011;39838;59.938;30.642;2024-03-25T05:13:45;14.00;;;7.93;;
48925;SDS011;39838;59.938;30.642;2024-03-25T05:16:11;16.27;;;8.48;;
48925;SDS011;39838;59.938;30.642;2024-03-25T05:18:38;16.45;;;8.27;;
48925;SDS011;39838;59.938;30.642;2024-03-25T05:21:04;14.02;;;8.20;;
48925;SDS011;39838;59.938;30.642;2024-03-25T05:23:30;11.85;;;7.53;;
48925;SDS011;39838;59.938;30.642;2024-03-25T05:25:57;14.70;;;7.82;;
48925;SDS011;39838;59.938;30.642;2024-03-25T05:28:23;13.32;;;7.57;;
48925;SDS011;39838;59.938;30.642;2024-03-25T05:30:49;13.27;;;7.50;;
48925;SDS011;39838;59.938;30.642;2024-03-25T05:33:15;12.43;;;8.05;;
48925;SDS011;39838;59.938;30.642;2024-03-25T05:35:42;13.50;;;7.93;;
48925;SDS011;39838;59.938;30.642;2024-03-25T05:38:08;12.65;;;7.90;;
48925;SDS011;39838;59.938;30.642;2024-03-25T05:40:35;14.18;;;8.07;;
48925;SDS011;39838;59.938;30.642;2024-03-25T05:43:02;15.05;;;8.32;;
48925;SDS011;39838;59.938;30.642;2024-03-25T05:45:28;14.15;;;8.68;;
48925;SDS011;39838;59.938;30.642;2024-03-25T05:47:54;16.08;;;8.82;;
48925;SDS011;39838;59.938;30.642;2024-03-25T05:50:20;16.65;;;8.95;;
48925;SDS011;39838;59.938;30.642;2024-03-25T05:52:48;20.95;;;9.85;;
48925;SDS011;39838;59.938;30.642;2024-03-25T05:55:14;16.42;;;9.68;;
48925;SDS011;39838;59.938;30.642;2024-03-25T05:57:40;17.67;;;10.05;;
48925;SDS011;39838;59.938;30.642;2024-03-25T06:00:07;13.93;;;8.90;;
48925;SDS011;39838;59.938;30.642;2024-03-25T06:02:34;18.02;;;9.88;;
48925;SDS011;39838;59.938;30.642;2024-03-25T06:05:00;15.38;;;9.07;;
48925;SDS011;39838;59.938;30.642;2024-03-25T06:07:26;17.67;;;9.35;;
48925;SDS011;39838;59.938;30.642;2024-03-25T06:09:53;18.65;;;9.15;;
48925;SDS011;39838;59.938;30.642;2024-03-25T06:12:19;24.00;;;10.73;;
48925;SDS011;39838;59.938;30.642;2024-03-25T06:14:46;19.48;;;11.20;;
48925;SDS011;39838;59.938;30.642;2024-03-25T06:17:12;20.05;;;10.98;;
48925;SDS011;39838;59.938;30.642;2024-03-25T06:19:38;23.65;;;10.95;;
48925;SDS011;39838;59.938;30.642;2024-03-25T06:22:04;18.58;;;9.43;;
48925;SDS011;39838;59.938;30.642;2024-03-25T06:24:30;17.90;;;8.73;;
48925;SDS011;39838;59.938;30.642;2024-03-25T06:26:57;17.02;;;9.00;;
48925;SDS011;39838;59.938;30.642;2024-03-25T06:29:24;15.48;;;8.18;;
48925;SDS011;39838;59.938;30.642;2024-03-25T06:31:50;14.45;;;8.43;;
48925;SDS011;39838;59.938;30.642;2024-03-25T06:34:34;18.48;;;9.10;;
48925;SDS011;39838;59.938;30.642;2024-03-25T06:37:00;16.83;;;9.85;;
48925;SDS011;39838;59.938;30.642;2024-03-25T06:39:26;17.55;;;9.95;;
48925;SDS011;39838;59.938;30.642;2024-03-25T06:41:53;20.40;;;10.55;;
48925;SDS011;39838;59.938;30.642;2024-03-25T06:44:21;17.85;;;9.88;;
48925;SDS011;39838;59.938;30.642;2024-03-25T06:46:47;18.33;;;11.02;;
48925;SDS011;39838;59.938;30.642;2024-03-25T06:49:13;20.20;;;10.40;;
48925;SDS011;39838;59.938;30.642;2024-03-25T06:51:39;19.52;;;10.55;;
48925;SDS011;39838;59.938;30.642;2024-03-25T06:54:05;15.27;;;9.32;;
48925;SDS011;39838;59.938;30.642;2024-03-25T06:56:31;15.10;;;9.32;;
48925;SDS011;39838;59.938;30.642;2024-03-25T06:58:57;16.30;;;9.30;;
48925;SDS011;39838;59.938;30.642;2024-03-25T07:01:25;14.55;;;9.18;;
48925;SDS011;39838;59.938;30.642;2024-03-25T07:03:51;14.07;;;8.48;;
48925;SDS011;39838;59.938;30.642;2024-03-25T07:06:17;16.02;;;8.73;;
48925;SDS011;39838;59.938;30.642;2024-03-25T07:08:43;14.48;;;8.98;;
48925;SDS011;39838;59.938;30.642;2024-03-25T07:11:09;15.05;;;9.38;;
48925;SDS011;39838;59.938;30.642;2024-03-25T07:13:35;15.50;;;8.40;;
48925;SDS011;39838;59.938;30.642;2024-03-25T07:16:02;13.55;;;8.52;;
48925;SDS011;39838;59.938;30.642;2024-03-25T07:18:29;12.27;;;8.23;;
48925;SDS011;39838;59.938;30.642;2024-03-25T07:20:55;14.95;;;8.15;;
48925;SDS011;39838;59.938;30.642;2024-03-25T07:23:22;11.32;;;7.50;;
48925;SDS011;39838;59.938;30.642;2024-03-25T07:25:48;11.82;;;7.18;;
48925;SDS011;39838;59.938;30.642;2024-03-25T07:28:14;12.82;;;8.07;;
48925;SDS011;39838;59.938;30.642;2024-03-25T07:30:40;14.07;;;8.18;;
48925;SDS011;39838;59.938;30.642;2024-03-25T07:33:07;13.55;;;8.40;;
48925;SDS011;39838;59.938;30.642;2024-03-25T07:35:34;13.13;;;8.35;;
48925;SDS011;39838;59.938;30.642;2024-03-25T07:38:01;12.85;;;7.72;;
48925;SDS011;39838;59.938;30.642;2024-03-25T07:40:27;12.65;;;8.23;;
48925;SDS011;39838;59.938;30.642;2024-03-25T07:42:54;11.15;;;7.43;;
48925;SDS011;39838;59.938;30.642;2024-03-25T07:45:20;14.27;;;7.35;;
48925;SDS011;39838;59.938;30.642;2024-03-25T07:47:46;15.77;;;7.25;;
48925;SDS011;39838;59.938;30.642;2024-03-25T07:50:12;9.25;;;6.60;;
48925;SDS011;39838;59.938;30.642;2024-03-25T07:52:40;10.15;;;5.28;;
48925;SDS011;39838;59.938;30.642;2024-03-25T07:55:07;10.43;;;5.20;;
48925;SDS011;39838;59.938;30.642;2024-03-25T07:57:33;7.60;;;4.93;;
48925;SDS011;39838;59.938;30.642;2024-03-25T08:00:00;6.82;;;4.85;;
48925;SDS011;39838;59.938;30.642;2024-03-25T08:02:26;6.03;;;4.30;;
48925;SDS011;39838;59.938;30.642;2024-03-25T08:04:52;7.93;;;4.60;;
48925;SDS011;39838;59.938;30.642;2024-03-25T08:07:18;8.00;;;4.15;;
48925;SDS011;39838;59.938;30.642;2024-03-25T08:09:46;5.18;;;3.63;;
48925;SDS011;39838;59.938;30.642;2024-03-25T08:12:12;6.00;;;3.90;;
48925;SDS011;39838;59.938;30.642;2024-03-25T08:14:38;6.90;;;4.18;;
48925;SDS011;39838;59.938;30.642;2024-03-25T08:17:04;8.55;;;4.32;;
48925;SDS011;39838;59.938;30.642;2024-03-25T08:19:30;6.75;;;4.57;;
48925;SDS011;39838;59.938;30.642;2024-03-25T08:21:56;9.05;;;5.00;;
48925;SDS011;39838;59.938;30.642;2024-03-25T08:24:23;9.20;;;5.20;;
48925;SDS011;39838;59.938;30.642;2024-03-25T08:26:50;8.35;;;5.47;;
48925;SDS011;39838;59.938;30.642;2024-03-25T08:29:16;9.10;;;5.63;;
48925;SDS011;39838;59.938;30.642;2024-03-25T08:31:42;9.57;;;5.22;;
48925;SDS011;39838;59.938;30.642;2024-03-25T08:34:08;8.05;;;5.20;;
48925;SDS011;39838;59.938;30.642;2024-03-25T08:36:34;9.15;;;5.30;;
48925;SDS011;39838;59.938;30.642;2024-03-25T08:39:01;8.48;;;4.70;;
48925;SDS011;39838;59.938;30.642;2024-03-25T08:41:28;9.05;;;5.10;;
48925;SDS011;39838;59.938;30.642;2024-03-25T08:43:55;7.95;;;4.88;;
48925;SDS011;39838;59.938;30.642;2024-03-25T08:46:22;8.18;;;5.22;;
48925;SDS011;39838;59.938;30.642;2024-03-25T08:48:48;7.80;;;4.60;;
48925;SDS011;39838;59.938;30.642;2024-03-25T08:51:14;7.25;;;4.97;;
48925;SDS011;39838;59.938;30.642;2024-03-25T08:53:40;7.15;;;4.90;;
48925;SDS011;39838;59.938;30.642;2024-03-25T08:56:06;11.15;;;5.40;;
48925;SDS011;39838;59.938;30.642;2024-03-25T08:58:32;6.90;;;4.95;;
48925;SDS011;39838;59.938;30.642;2024-03-25T09:01:00;7.10;;;5.05;;
48925;SDS011;39838;59.938;30.642;2024-03-25T09:03:26;8.88;;;4.95;;
48925;SDS011;39838;59.938;30.642;2024-03-25T09:05:52;7.32;;;5.00;;
48925;SDS011;39838;59.938;30.642;2024-03-25T09:08:18;9.02;;;5.22;;
48925;SDS011;39838;59.938;30.642;2024-03-25T09:10:44;7.88;;;5.13;;
48925;SDS011;39838;59.938;30.642;2024-03-25T09:15:56;6.28;;;4.40;;
48925;SDS011;39838;59.938;30.642;2024-03-25T09:18:23;11.13;;;4.65;;
48925;SDS011;39838;59.938;30.642;2024-03-25T09:20:49;7.63;;;4.53;;
48925;SDS011;39838;59.938;30.642;2024-03-25T09:23:16;8.15;;;4.85;;
48925;SDS011;39838;59.938;30.642;2024-03-25T09:25:50;7.63;;;4.85;;
48925;SDS011;39838;59.938;30.642;2024-03-25T09:28:17;6.95;;;5.15;;
48925;SDS011;39838;59.938;30.642;2024-03-25T09:30:43;8.98;;;4.75;;
48925;SDS011;39838;59.938;30.642;2024-03-25T09:33:09;12.90;;;5.07;;
48925;SDS011;39838;59.938;30.642;2024-03-25T09:35:37;9.93;;;5.43;;
48925;SDS011;39838;59.938;30.642;2024-03-25T09:38:03;7.95;;;5.03;;
48925;SDS011;39838;59.938;30.642;2024-03-25T09:40:29;9.43;;;5.72;;
48925;SDS011;39838;59.938;30.642;2024-03-25T09:42:56;10.02;;;5.60;;
48925;SDS011;39838;59.938;30.642;2024-03-25T09:45:24;8.18;;;4.97;;
48925;SDS011;39838;59.938;30.642;2024-03-25T09:47:51;7.95;;;5.40;;
48925;SDS011;39838;59.938;30.642;2024-03-25T09:50:17;9.90;;;4.85;;
48925;SDS011;39838;59.938;30.642;2024-03-25T09:52:46;8.45;;;4.75;;
48925;SDS011;39838;59.938;30.642;2024-03-25T09:55:12;11.65;;;5.45;;
48925;SDS011;39838;59.938;30.642;2024-03-25T09:57:39;8.75;;;5.40;;
48925;SDS011;39838;59.938;30.642;2024-03-25T10:00:06;9.77;;;5.40;;
48925;SDS011;39838;59.938;30.642;2024-03-25T10:02:33;9.63;;;5.50;;
48925;SDS011;39838;59.938;30.642;2024-03-25T10:05:01;9.73;;;5.28;;
48925;SDS011;39838;59.938;30.642;2024-03-25T10:07:29;9.40;;;5.20;;
48925;SDS011;39838;59.938;30.642;2024-03-25T10:09:57;8.80;;;5.50;;
48925;SDS011;39838;59.938;30.642;2024-03-25T10:12:23;9.40;;;5.30;;
48925;SDS011;39838;59.938;30.642;2024-03-25T10:14:49;10.20;;;5.43;;
48925;SDS011;39838;59.938;30.642;2024-03-25T10:17:15;9.00;;;5.47;;
48925;SDS011;39838;59.938;30.642;2024-03-25T10:19:41;10.80;;;5.97;;
48925;SDS011;39838;59.938;30.642;2024-03-25T10:22:08;10.73;;;5.70;;
48925;SDS011;39838;59.938;30.642;2024-03-25T10:24:38;13.15;;;6.45;;
48925;SDS011;39838;59.938;30.642;2024-03-25T10:27:09;13.13;;;5.90;;
48925;SDS011;39838;59.938;30.642;2024-03-25T10:29:36;11.30;;;6.15;;
48925;SDS011;39838;59.938;30.642;2024-03-25T10:32:02;11.07;;;5.07;;
48925;SDS011;39838;59.938;30.642;2024-03-25T10:34:28;8.25;;;4.93;;
48925;SDS011;39838;59.938;30.642;2024-03-25T10:36:56;7.85;;;4.80;;
48925;SDS011;39838;59.938;30.642;2024-03-25T10:39:27;10.13;;;4.88;;
48925;SDS011;39838;59.938;30.642;2024-03-25T10:41:56;7.70;;;4.82;;
48925;SDS011;39838;59.938;30.642;2024-03-25T10:44:24;8.75;;;4.90;;
48925;SDS011;39838;59.938;30.642;2024-03-25T10:46:52;8.10;;;4.63;;
48925;SDS011;39838;59.938;30.642;2024-03-25T10:49:25;9.95;;;4.53;;
48925;SDS011;39838;59.938;30.642;2024-03-25T10:51:58;12.23;;;4.55;;
48925;SDS011;39838;59.938;30.642;2024-03-25T10:54:26;8.57;;;4.10;;
48925;SDS011;39838;59.938;30.642;2024-03-25T10:56:56;8.85;;;3.97;;
48925;SDS011;39838;59.938;30.642;2024-03-25T10:59:26;7.25;;;3.67;;
48925;SDS011;39838;59.938;30.642;2024-03-25T11:01:52;12.38;;;4.57;;
48925;SDS011;39838;59.938;30.642;2024-03-25T11:04:19;8.15;;;4.53;;
48925;SDS011;39838;59.938;30.642;2024-03-25T11:06:46;8.95;;;4.00;;
48925;SDS011;39838;59.938;30.642;2024-03-25T11:09:21;6.65;;;4.10;;
48925;SDS011;39838;59.938;30.642;2024-03-25T11:11:49;7.18;;;4.20;;
48925;SDS011;39838;59.938;30.642;2024-03-25T11:14:15;6.63;;;4.13;;
48925;SDS011;39838;59.938;30.642;2024-03-25T11:16:43;10.68;;;4.82;;
48925;SDS011;39838;59.938;30.642;2024-03-25T11:19:10;6.50;;;4.30;;
48925;SDS011;39838;59.938;30.642;2024-03-25T11:21:36;8.68;;;4.07;;
48925;SDS011;39838;59.938;30.642;2024-03-25T11:24:06;5.68;;;4.03;;
48925;SDS011;39838;59.938;30.642;2024-03-25T11:26:32;8.35;;;4.63;;
48925;SDS011;39838;59.938;30.642;2024-03-25T11:28:59;9.57;;;4.63;;
48925;SDS011;39838;59.938;30.642;2024-03-25T11:31:25;11.45;;;4.38;;
48925;SDS011;39838;59.938;30.642;2024-03-25T11:33:54;11.27;;;4.90;;
48925;SDS011;39838;59.938;30.642;2024-03-25T11:36:20;12.80;;;4.68;;
48925;SDS011;39838;59.938;30.642;2024-03-25T11:38:56;11.38;;;4.40;;
48925;SDS011;39838;59.938;30.642;2024-03-25T11:41:23;16.88;;;4.85;;
48925;SDS011;39838;59.938;30.642;2024-03-25T11:43:50;10.93;;;4.00;;
48925;SDS011;39838;59.938;30.642;2024-03-25T11:46:19;9.10;;;4.05;;
48925;SDS011;39838;59.938;30.642;2024-03-25T11:48:45;9.82;;;4.25;;
48925;SDS011;39838;59.938;30.642;2024-03-25T11:51:14;10.65;;;4.43;;
48925;SDS011;39838;59.938;30.642;2024-03-25T11:53:42;10.30;;;4.93;;
48925;SDS011;39838;59.938;30.642;2024-03-25T11:56:08;12.00;;;4.30;;
48925;SDS011;39838;59.938;30.642;2024-03-25T11:58:36;7.53;;;3.30;;
48925;SDS011;39838;59.938;30.642;2024-03-25T12:01:02;9.48;;;3.80;;
48925;SDS011;39838;59.938;30.642;2024-03-25T12:03:29;8.65;;;3.80;;
48925;SDS011;39838;59.938;30.642;2024-03-25T12:05:55;9.70;;;4.15;;
48925;SDS011;39838;59.938;30.642;2024-03-25T12:08:23;10.35;;;4.97;;
48925;SDS011;39838;59.938;30.642;2024-03-25T12:10:49;8.57;;;4.75;;
48925;SDS011;39838;59.938;30.642;2024-03-25T12:13:34;11.77;;;4.63;;
48925;SDS011;39838;59.938;30.642;2024-03-25T12:16:00;11.85;;;4.55;;
48925;SDS011;39838;59.938;30.642;2024-03-25T12:18:26;10.27;;;4.05;;
48925;SDS011;39838;59.938;30.642;2024-03-25T12:20:52;10.13;;;4.40;;
48925;SDS011;39838;59.938;30.642;2024-03-25T12:23:18;7.82;;;4.15;;
48925;SDS011;39838;59.938;30.642;2024-03-25T12:25:49;7.60;;;4.50;;
48925;SDS011;39838;59.938;30.642;2024-03-25T12:28:15;12.15;;;5.03;;
48925;SDS011;39838;59.938;30.642;2024-03-25T12:30:48;8.18;;;4.47;;
48925;SDS011;39838;59.938;30.642;2024-03-25T12:33:15;12.90;;;5.57;;
48925;SDS011;39838;59.938;30.642;2024-03-25T12:35:44;12.95;;;4.90;;
48925;SDS011;39838;59.938;30.642;2024-03-25T12:38:21;11.35;;;5.30;;
48925;SDS011;39838;59.938;30.642;2024-03-25T12:40:50;13.10;;;5.80;;
48925;SDS011;39838;59.938;30.642;2024-03-25T12:43:16;18.88;;;6.18;;
48925;SDS011;39838;59.938;30.642;2024-03-25T12:45:43;15.65;;;6.32;;
48925;SDS011;39838;59.938;30.642;2024-03-25T12:48:09;10.50;;;6.28;;
48925;SDS011;39838;59.938;30.642;2024-03-25T12:50:36;13.23;;;6.30;;
48925;SDS011;39838;59.938;30.642;2024-03-25T12:53:02;13.95;;;6.38;;
48925;SDS011;39838;59.938;30.642;2024-03-25T12:55:29;15.63;;;6.60;;
48925;SDS011;39838;59.938;30.642;2024-03-25T12:57:57;14.45;;;6.95;;
48925;SDS011;39838;59.938;30.642;2024-03-25T13:00:23;15.13;;;7.30;;
48925;SDS011;39838;59.938;30.642;2024-03-25T13:02:49;12.68;;;6.45;;
48925;SDS011;39838;59.938;30.642;2024-03-25T13:05:15;16.30;;;6.72;;
48925;SDS011;39838;59.938;30.642;2024-03-25T13:07:41;16.90;;;7.00;;
48925;SDS011;39838;59.938;30.642;2024-03-25T13:10:08;17.55;;;7.05;;
48925;SDS011;39838;59.938;30.642;2024-03-25T13:12:34;11.13;;;5.90;;
48925;SDS011;39838;59.938;30.642;2024-03-25T13:15:02;12.98;;;6.20;;
48925;SDS011;39838;59.938;30.642;2024-03-25T13:17:30;11.18;;;6.88;;
48925;SDS011;39838;59.938;30.642;2024-03-25T13:19:56;15.82;;;5.63;;
48925;SDS011;39838;59.938;30.642;2024-03-25T13:22:22;14.60;;;6.47;;
48925;SDS011;39838;59.938;30.642;2024-03-25T13:24:48;12.85;;;5.78;;
48925;SDS011;39838;59.938;30.642;2024-03-25T13:27:14;11.60;;;6.78;;
48925;SDS011;39838;59.938;30.642;2024-03-25T13:29:41;11.63;;;6.15;;
48925;SDS011;39838;59.938;30.642;2024-03-25T13:32:08;11.80;;;5.35;;
48925;SDS011;39838;59.938;30.642;2024-03-25T13:34:34;13.10;;;6.05;;
48925;SDS011;39838;59.938;30.642;2024-03-25T13:37:00;11.65;;;5.55;;
48925;SDS011;39838;59.938;30.642;2024-03-25T13:39:26;11.32;;;6.28;;
48925;SDS011;39838;59.938;30.642;2024-03-25T13:41:53;11.65;;;5.88;;
48925;SDS011;39838;59.938;30.642;2024-03-25T13:44:19;21.33;;;6.50;;
48925;SDS011;39838;59.938;30.642;2024-03-25T13:46:45;13.07;;;6.28;;
48925;SDS011;39838;59.938;30.642;2024-03-25T13:49:13;13.27;;;5.65;;
48925;SDS011;39838;59.938;30.642;2024-03-25T13:51:39;12.55;;;5.78;;
48925;SDS011;39838;59.938;30.642;2024-03-25T13:54:05;10.23;;;6.10;;
48925;SDS011;39838;59.938;30.642;2024-03-25T13:56:31;14.10;;;5.97;;
48925;SDS011;39838;59.938;30.642;2024-03-25T13:58:57;11.80;;;6.18;;
48925;SDS011;39838;59.938;30.642;2024-03-25T14:01:23;9.93;;;5.43;;
48925;SDS011;39838;59.938;30.642;2024-03-25T14:03:49;17.85;;;6.00;;
48925;SDS011;39838;59.938;30.642;2024-03-25T14:06:17;18.98;;;6.25;;
48925;SDS011;39838;59.938;30.642;2024-03-25T14:08:43;8.25;;;4.90;;
48925;SDS011;39838;59.938;30.642;2024-03-25T14:11:09;12.80;;;5.10;;
48925;SDS011;39838;59.938;30.642;2024-03-25T14:13:35;13.15;;;5.60;;
48925;SDS011;39838;59.938;30.642;2024-03-25T14:16:01;9.85;;;5.13;;
48925;SDS011;39838;59.938;30.642;2024-03-25T14:18:28;13.18;;;5.68;;
48925;SDS011;39838;59.938;30.642;2024-03-25T14:20:54;13.32;;;5.15;;
48925;SDS011;39838;59.938;30.642;2024-03-25T14:23:21;11.60;;;5.10;;
48925;SDS011;39838;59.938;30.642;2024-03-25T14:25:48;14.25;;;5.68;;